This is the latest recevied weather packets stored in our database for station/object IK4PKL-13. If no packets are shown the sender has not sent any weather packets the latest 10 day(s).
| Time | Temp. | Humidity | Pressure | Rain* | Wind** | Luminosity | Snow |
|---|---|---|---|---|---|---|---|
| 1777173920 | 10° C | 73% | 1018.3 hPa | 0 mm | - | 0 W/m² | - |
| 1777171520 | 10.56° C | 67% | 1018.2 hPa | 0 mm | - | 0 W/m² | - |
| 1777166738 | 11.11° C | 67% | 1018.2 hPa | 0 mm | - | 0 W/m² | - |
| 1777166148 | 11.67° C | 66% | 1018.2 hPa | 0 mm | - | 0 W/m² | - |
| 1777163120 | 11.67° C | 66% | 1018.1 hPa | 0 mm | - | 0 W/m² | - |
| 1777159536 | 12.78° C | 63% | 1018.1 hPa | 0 mm | - | 0 W/m² | - |
| 1777158929 | 13.33° C | 61% | 1018.1 hPa | 0 mm | - | 0 W/m² | - |
| 1777157743 | 13.89° C | 52% | 1018.2 hPa | 0 mm | - | 0 W/m² | - |
| 1777154735 | 15.56° C | 44% | 1017.9 hPa | 0 mm | - | 0 W/m² | - |
| 1777151728 | 13.89° C | 66% | 1018 hPa | 0 mm | - | 0 W/m² | - |
| 1777151120 | 13.33° C | 82% | 1017.9 hPa | 0 mm | - | 0 W/m² | - |
| 1777146943 | 15.56° C | 79% | 1017.6 hPa | 0 mm | - | 0 W/m² | - |
| 1777145728 | 16.11° C | 79% | 1017.5 hPa | 0 mm | - | 0 W/m² | - |
| 1777140339 | 18.33° C | 74% | 1017 hPa | 0 mm | - | 4 W/m² | - |
| 1777136721 | 20.56° C | 61% | 1016.8 hPa | 0 mm | - | 45 W/m² | - |
| 1777134377 | 21.11° C | 57% | 1016.9 hPa | 0 mm | - | 118 W/m² | - |
| 1777133120 | 21.11° C | 55% | 1016.9 hPa | 0 mm | - | 162 W/m² | - |
| 1777131364 | 21.67° C | 48% | 1017 hPa | 0 mm | - | 253 W/m² | - |
| 1777127728 | 22.22° C | 48% | 1017.2 hPa | 0 mm | - | 397 W/m² | - |
| 1777124145 | 21.67° C | 46% | 1017.9 hPa | 0 mm | - | 526 W/m² | - |
| 1777123536 | 21.11° C | 48% | 1017.9 hPa | 0 mm | - | 547 W/m² | - |
| 1777121746 | 21.11° C | 43% | 1018.2 hPa | 0 mm | - | 592 W/m² | - |
| 1777116928 | 20.56° C | 45% | 1018.8 hPa | 0 mm | - | 666 W/m² | - |
| 1777111538 | 21.11° C | 43% | 1019.4 hPa | 0 mm | - | 635 W/m² | - |
| 1777106736 | 20.56° C | 37% | 1019.8 hPa | 0 mm | - | 520 W/m² | - |
* Rain latest hour (hover to see other rain measurements)
** Current wind speed in m/s (hover to see current wind gust speed)